createdAt,value
2019-01-11T00:01:41.880Z,71.20
2019-01-11T00:04:12.193Z,71.20
2019-01-11T00:06:42.947Z,71.40
2019-01-11T00:11:49.510Z,72.10
2019-01-11T00:14:19.369Z,71.30
2019-01-11T00:16:49.133Z,71.20
2019-01-11T00:19:18.822Z,71.10
2019-01-11T00:21:48.446Z,71.30
2019-01-11T00:24:18.075Z,71.20
2019-01-11T00:26:47.753Z,71.00
2019-01-11T00:29:17.580Z,70.90
2019-01-11T00:31:48.085Z,70.90
2019-01-11T00:34:17.949Z,70.70
2019-01-11T00:36:47.568Z,70.60
2019-01-11T00:39:17.857Z,70.60
2019-01-11T00:41:47.501Z,70.70
2019-01-11T00:44:17.086Z,70.50
2019-01-11T00:46:46.798Z,70.50
2019-01-11T00:49:16.399Z,70.50
2019-01-11T00:51:46.021Z,70.50
2019-01-11T00:54:15.588Z,70.60
2019-01-11T00:56:45.902Z,70.60
2019-01-11T00:59:15.485Z,70.40
2019-01-11T01:01:45.861Z,70.30
2019-01-11T01:04:15.686Z,70.40
2019-01-11T01:06:45.273Z,70.40
2019-01-11T01:09:14.942Z,70.50
2019-01-11T01:11:44.576Z,70.50
2019-01-11T01:14:14.281Z,70.60
2019-01-11T01:16:43.862Z,70.20
2019-01-11T01:19:19.866Z,70.10
2019-01-11T01:21:46.282Z,70.30
2019-01-11T01:24:16.033Z,70.30
2019-01-11T01:26:45.618Z,70.20
2019-01-11T01:29:15.246Z,70.10
2019-01-11T01:31:44.857Z,70.10
2019-01-11T01:34:15.206Z,70.20
2019-01-11T01:36:44.848Z,70.30
2019-01-11T01:39:14.566Z,70.30
2019-01-11T01:41:44.278Z,70.30
2019-01-11T01:44:13.969Z,70.50
2019-01-11T01:46:44.236Z,70.60
2019-01-11T01:49:13.887Z,70.70
2019-01-11T01:51:44.198Z,70.70
2019-01-11T01:54:13.774Z,70.70
2019-01-11T01:56:43.346Z,70.80
2019-01-11T01:59:12.996Z,71.10
2019-01-11T02:01:42.701Z,71.20
2019-01-11T02:04:12.273Z,71.20
2019-01-11T02:06:42.067Z,71.40
2019-01-11T02:09:11.677Z,71.50
2019-01-11T02:11:42.015Z,71.50
2019-01-11T02:14:11.580Z,71.60
2019-01-11T02:16:41.219Z,71.60
2019-01-11T02:19:10.853Z,71.60
2019-01-11T02:21:40.484Z,71.50
2019-01-11T02:24:10.060Z,71.60
2019-01-11T02:26:39.713Z,71.40
2019-01-11T02:29:09.309Z,71.30
2019-01-11T02:31:38.884Z,71.30
2019-01-11T02:34:08.499Z,71.30
2019-01-11T02:36:38.231Z,71.50
2019-01-11T02:39:07.939Z,71.60
2019-01-11T02:41:37.513Z,71.50
2019-01-11T02:44:07.090Z,71.40
2019-01-11T02:46:36.735Z,71.50
2019-01-11T02:49:06.318Z,71.50
2019-01-11T02:51:35.894Z,71.40
2019-01-11T02:54:05.665Z,71.30
2019-01-11T02:56:35.321Z,71.30
2019-01-11T02:59:04.918Z,71.30
2019-01-11T03:01:34.613Z,71.40
2019-01-11T03:04:04.262Z,71.50
2019-01-11T03:06:34.721Z,71.50
2019-01-11T03:09:05.349Z,71.50
2019-01-11T03:11:35.114Z,71.50
2019-01-11T03:14:04.729Z,71.60
2019-01-11T03:16:34.309Z,71.70
2019-01-11T03:19:03.974Z,71.80
2019-01-11T03:21:33.603Z,71.80
2019-01-11T03:24:03.189Z,72.70
2019-01-11T03:26:32.823Z,71.90
2019-01-11T03:29:02.401Z,71.90
2019-01-11T03:31:33.732Z,72.00
2019-01-11T03:34:03.341Z,72.00
2019-01-11T03:36:33.647Z,71.90
2019-01-11T03:39:05.161Z,71.80
2019-01-11T03:41:36.421Z,71.70
2019-01-11T03:44:06.190Z,71.60
2019-01-11T03:46:36.478Z,71.60
2019-01-11T03:49:06.103Z,71.50
2019-01-11T03:51:35.988Z,71.40
2019-01-11T03:54:05.673Z,71.20
2019-01-11T03:56:35.298Z,71.10
2019-01-11T03:59:04.891Z,71.00
2019-01-11T04:01:34.461Z,71.00
2019-01-11T04:04:04.039Z,71.00
2019-01-11T04:06:33.674Z,70.90
2019-01-11T04:09:04.964Z,71.00
2019-01-11T04:11:34.536Z,71.00
2019-01-11T04:14:04.241Z,71.00
2019-01-11T04:16:33.817Z,71.10
2019-01-11T04:19:05.086Z,70.80
2019-01-11T04:21:34.665Z,70.70
2019-01-11T04:24:04.254Z,70.70
2019-01-11T04:26:33.934Z,70.70
2019-01-11T04:29:04.418Z,70.60
2019-01-11T04:31:33.996Z,70.60
2019-01-11T04:34:03.633Z,70.70
2019-01-11T04:36:33.407Z,70.70
2019-01-11T04:39:03.254Z,70.50
2019-01-11T04:41:32.829Z,70.50
2019-01-11T04:44:02.680Z,70.40
2019-01-11T04:46:32.294Z,70.30
2019-01-11T04:49:01.950Z,70.50
2019-01-11T04:51:31.568Z,70.60
2019-01-11T04:54:01.141Z,70.50
2019-01-11T04:56:31.408Z,70.30
2019-01-11T04:59:01.182Z,70.40
2019-01-11T05:01:30.790Z,70.40
2019-01-11T05:04:00.483Z,70.40
2019-01-11T05:06:30.121Z,70.40
2019-01-11T05:08:59.879Z,70.40
2019-01-11T05:11:29.574Z,70.30
2019-01-11T05:13:59.152Z,70.10
2019-01-11T05:16:28.760Z,70.00
2019-01-11T05:18:58.526Z,70.00
2019-01-11T05:21:29.053Z,70.00
2019-01-11T05:23:58.764Z,69.90
2019-01-11T05:26:28.402Z,69.90
2019-01-11T05:28:58.021Z,69.60
2019-01-11T05:31:27.654Z,69.70
2019-01-11T05:33:57.256Z,69.90
2019-01-11T05:36:26.914Z,70.10
2019-01-11T05:38:56.505Z,70.20
2019-01-11T05:41:26.256Z,70.10
2019-01-11T05:43:56.048Z,70.40
2019-01-11T05:46:25.654Z,70.60
2019-01-11T05:48:55.281Z,70.70
2019-01-11T05:51:24.965Z,70.90
2019-01-11T05:53:54.613Z,71.10
2019-01-11T05:56:24.202Z,71.20
2019-01-11T05:58:55.457Z,71.30
2019-01-11T06:01:25.149Z,71.40
2019-01-11T06:03:56.812Z,71.40
2019-01-11T06:06:28.925Z,71.50
2019-01-11T06:08:58.637Z,71.80
2019-01-11T06:11:28.342Z,72.10
2019-01-11T06:13:58.678Z,72.30
2019-01-11T06:16:29.252Z,72.30
2019-01-11T06:18:58.878Z,72.40
2019-01-11T06:21:28.498Z,72.50
2019-01-11T06:23:58.294Z,72.70
2019-01-11T06:26:28.849Z,73.00
2019-01-11T06:28:58.618Z,73.10
2019-01-11T06:31:28.446Z,73.40
2019-01-11T06:33:58.222Z,73.60
2019-01-11T06:36:28.029Z,73.60
2019-01-11T06:38:57.752Z,73.60
2019-01-11T06:41:29.025Z,73.60
2019-01-11T06:43:58.805Z,73.60
2019-01-11T06:46:28.422Z,73.40
2019-01-11T06:48:58.033Z,73.60
2019-01-11T06:51:27.654Z,73.70
2019-01-11T06:53:57.338Z,73.90
2019-01-11T06:56:26.968Z,74.10
2019-01-11T06:58:56.740Z,74.00
2019-01-11T07:01:26.368Z,74.20
2019-01-11T07:03:55.977Z,74.20
2019-01-11T07:06:25.594Z,74.20
2019-01-11T07:08:55.320Z,74.20
2019-01-11T07:11:24.930Z,74.20
2019-01-11T07:13:54.697Z,74.30
2019-01-11T07:16:24.413Z,74.50
2019-01-11T07:18:54.127Z,74.60
2019-01-11T07:21:23.752Z,74.80
2019-01-11T07:23:54.225Z,75.00
2019-01-11T07:26:24.121Z,74.70
2019-01-11T07:28:54.437Z,74.80
2019-01-11T07:31:24.210Z,74.70
2019-01-11T07:33:53.902Z,74.70
2019-01-11T07:36:30.024Z,74.70
2019-01-11T07:38:59.802Z,74.80
2019-01-11T07:41:29.579Z,74.90
2019-01-11T07:43:59.443Z,74.90
2019-01-11T07:46:29.130Z,74.80
2019-01-11T07:48:58.904Z,74.90
2019-01-11T07:51:28.682Z,74.80
2019-01-11T07:53:58.389Z,74.80
2019-01-11T07:56:28.269Z,74.90
2019-01-11T07:58:58.166Z,74.90
2019-01-11T08:01:29.406Z,74.70
2019-01-11T08:03:59.031Z,74.90
2019-01-11T08:06:28.815Z,75.10
2019-01-11T08:08:58.464Z,75.00
2019-01-11T08:11:28.086Z,75.30
2019-01-11T08:13:57.821Z,75.30
2019-01-11T08:16:27.514Z,75.30
2019-01-11T08:18:57.229Z,75.30
2019-01-11T08:21:26.917Z,75.30
2019-01-11T08:23:56.722Z,75.40
2019-01-11T08:26:26.383Z,75.30
2019-01-11T08:28:56.082Z,75.30
2019-01-11T08:31:25.741Z,75.30
2019-01-11T08:33:55.429Z,75.20
2019-01-11T08:36:25.135Z,75.30
2019-01-11T08:38:54.782Z,75.20
2019-01-11T08:41:24.501Z,75.20
2019-01-11T08:43:54.244Z,75.30
2019-01-11T08:46:23.892Z,75.20
2019-01-11T08:48:53.758Z,75.10
2019-01-11T08:51:23.369Z,75.00
2019-01-11T08:53:52.977Z,75.00
2019-01-11T08:56:22.657Z,74.90
2019-01-11T08:58:52.289Z,75.00
2019-01-11T09:01:21.886Z,74.90
2019-01-11T09:03:51.793Z,74.80
2019-01-11T09:06:21.433Z,74.90
2019-01-11T09:08:51.070Z,74.70
2019-01-11T09:11:20.691Z,74.70
2019-01-11T09:13:51.382Z,74.60
2019-01-11T09:16:21.067Z,74.70
2019-01-11T09:18:52.137Z,74.60
2019-01-11T09:21:22.439Z,74.40
2019-01-11T09:23:52.242Z,74.40
2019-01-11T09:26:21.950Z,74.30
2019-01-11T09:28:52.529Z,74.60
2019-01-11T09:31:22.982Z,74.70
2019-01-11T09:33:52.622Z,74.70
2019-01-11T09:36:22.611Z,74.50
2019-01-11T09:38:52.308Z,74.50
2019-01-11T09:41:21.938Z,74.50
2019-01-11T09:43:51.661Z,74.40
2019-01-11T09:46:21.723Z,74.50
2019-01-11T09:48:51.342Z,74.30
2019-01-11T09:51:21.105Z,74.50
2019-01-11T09:53:50.752Z,74.70
2019-01-11T09:56:20.534Z,74.50
2019-01-11T09:58:50.269Z,74.40
2019-01-11T10:01:20.062Z,74.50
2019-01-11T10:03:49.920Z,74.40
2019-01-11T10:06:19.549Z,74.40
2019-01-11T10:08:49.171Z,74.50
2019-01-11T10:11:18.816Z,74.60
2019-01-11T10:13:48.597Z,74.70
2019-01-11T10:16:18.215Z,74.70
2019-01-11T10:18:47.934Z,74.60
2019-01-11T10:21:22.349Z,74.50
2019-01-11T10:23:49.142Z,74.70
2019-01-11T10:26:18.785Z,74.60
2019-01-11T10:28:48.506Z,74.60
2019-01-11T10:31:18.386Z,74.80
2019-01-11T10:33:48.013Z,74.50
2019-01-11T10:36:17.794Z,74.30
2019-01-11T10:38:47.688Z,74.30
2019-01-11T10:41:17.465Z,74.10
2019-01-11T10:43:47.174Z,74.10
2019-01-11T10:46:21.417Z,74.30
2019-01-11T10:48:51.214Z,74.00
2019-01-11T10:51:21.614Z,73.90
2019-01-11T10:53:51.400Z,73.90
2019-01-11T10:56:21.182Z,73.80
2019-01-11T10:58:51.120Z,73.90
2019-01-11T11:01:21.484Z,74.00
2019-01-11T11:03:51.094Z,74.00
2019-01-11T11:06:20.723Z,73.90
2019-01-11T11:08:50.430Z,73.90
2019-01-11T11:11:20.053Z,74.00
2019-01-11T11:13:50.049Z,74.20
2019-01-11T11:16:19.791Z,74.10
2019-01-11T11:18:50.120Z,74.00
2019-01-11T11:21:19.792Z,73.70
2019-01-11T11:23:49.581Z,73.60
2019-01-11T11:26:19.224Z,74.00
2019-01-11T11:28:49.088Z,73.80
2019-01-11T11:31:18.852Z,73.80
2019-01-11T11:33:48.534Z,73.90
2019-01-11T11:36:18.316Z,74.20
2019-01-11T11:38:48.002Z,74.10
2019-01-11T11:41:17.626Z,73.90
2019-01-11T11:43:47.279Z,73.90
2019-01-11T11:46:16.993Z,74.00
2019-01-11T11:48:46.629Z,73.60
2019-01-11T11:51:16.617Z,73.70
2019-01-11T11:53:46.978Z,73.70
2019-01-11T11:56:16.591Z,73.90
2019-01-11T11:58:46.196Z,73.70
2019-01-11T12:01:15.850Z,73.50
2019-01-11T12:03:45.587Z,73.80
2019-01-11T12:06:15.682Z,73.80
2019-01-11T12:08:45.433Z,73.80
2019-01-11T12:11:15.214Z,73.60
2019-01-11T12:13:44.937Z,73.70
2019-01-11T12:16:14.758Z,73.50
2019-01-11T12:18:44.488Z,73.40
2019-01-11T12:21:14.136Z,73.50
2019-01-11T12:23:43.787Z,73.70
2019-01-11T12:26:14.395Z,73.80
2019-01-11T12:28:45.141Z,73.70
2019-01-11T12:31:15.123Z,73.50
2019-01-11T12:33:44.818Z,73.60
2019-01-11T12:36:14.505Z,73.80
2019-01-11T12:38:44.225Z,74.00
2019-01-11T12:41:13.848Z,74.30
2019-01-11T12:43:43.917Z,74.40
2019-01-11T12:46:13.789Z,74.30
2019-01-11T12:48:43.441Z,74.30
2019-01-11T12:51:13.058Z,74.60
2019-01-11T12:53:42.828Z,74.70
2019-01-11T12:56:12.445Z,74.80
2019-01-11T12:58:44.532Z,74.80
2019-01-11T13:01:14.152Z,74.90
2019-01-11T13:03:43.817Z,74.90
2019-01-11T13:06:13.712Z,74.80
2019-01-11T13:08:43.376Z,74.90
2019-01-11T13:11:13.025Z,75.00
2019-01-11T13:13:42.636Z,74.90
2019-01-11T13:16:12.304Z,75.40
2019-01-11T13:18:43.081Z,74.90
2019-01-11T13:21:12.701Z,74.90
2019-01-11T13:23:42.293Z,74.80
2019-01-11T13:26:12.009Z,74.70
2019-01-11T13:28:41.807Z,74.70
2019-01-11T13:31:11.606Z,74.60
2019-01-11T13:33:41.234Z,74.50
2019-01-11T13:36:12.600Z,74.40
2019-01-11T13:38:42.206Z,74.40
2019-01-11T13:41:11.898Z,74.20
2019-01-11T13:43:41.522Z,74.50
2019-01-11T13:46:12.016Z,74.50
2019-01-11T13:48:41.669Z,74.30
2019-01-11T13:51:11.473Z,74.40
2019-01-11T13:53:41.214Z,74.40
2019-01-11T13:56:10.825Z,74.20
2019-01-11T13:58:40.450Z,74.30
2019-01-11T14:01:10.110Z,74.30
2019-01-11T14:03:39.764Z,74.40
2019-01-11T14:06:09.466Z,74.30
2019-01-11T14:08:39.111Z,74.50
2019-01-11T14:11:08.899Z,74.40
2019-01-11T14:13:39.269Z,74.60
2019-01-11T14:16:08.881Z,74.80
2019-01-11T14:18:38.728Z,74.80
2019-01-11T14:21:08.365Z,74.90
2019-01-11T14:23:37.996Z,74.90
2019-01-11T14:26:07.648Z,74.90
2019-01-11T14:28:38.259Z,74.90
2019-01-11T14:31:07.969Z,75.00
2019-01-11T14:33:37.685Z,75.00
2019-01-11T14:36:08.131Z,74.90
2019-01-11T14:38:37.762Z,74.70
2019-01-11T14:41:07.417Z,74.70
2019-01-11T14:43:37.032Z,74.70
2019-01-11T14:46:06.757Z,74.80
2019-01-11T14:48:36.481Z,75.00
2019-01-11T14:51:06.289Z,75.00
2019-01-11T14:53:36.092Z,75.10
2019-01-11T14:56:05.789Z,75.20
2019-01-11T14:58:35.507Z,75.20
2019-01-11T15:01:05.154Z,75.20
2019-01-11T15:03:35.989Z,75.30
2019-01-11T15:06:05.623Z,75.30
2019-01-11T15:08:35.397Z,75.60
2019-01-11T15:11:05.034Z,75.60
2019-01-11T15:16:04.314Z,75.60
2019-01-11T15:18:34.258Z,75.80
2019-01-11T15:21:04.128Z,76.10
2019-01-11T15:23:34.102Z,76.10
2019-01-11T15:26:03.797Z,76.20
2019-01-11T15:28:33.402Z,76.20
2019-01-11T15:31:03.050Z,76.30
2019-01-11T15:33:32.816Z,76.40
2019-01-11T15:36:02.474Z,76.40
2019-01-11T15:38:32.455Z,76.50
2019-01-11T15:41:02.068Z,76.60
2019-01-11T15:43:31.680Z,76.60
2019-01-11T15:46:04.390Z,76.70
2019-01-11T15:48:45.278Z,76.70
2019-01-11T15:51:17.010Z,76.90
2019-01-11T15:53:46.657Z,77.00
2019-01-11T15:56:20.366Z,77.10
2019-01-11T15:58:49.980Z,77.10
2019-01-11T16:01:19.610Z,77.20
2019-01-11T16:03:49.511Z,77.10
2019-01-11T16:06:27.287Z,77.10
2019-01-11T16:09:14.899Z,77.20
2019-01-11T16:11:48.207Z,77.30
2019-01-11T16:14:27.008Z,77.30
2019-01-11T16:17:00.182Z,77.40
2019-01-11T16:19:29.805Z,77.40
2019-01-11T16:21:59.537Z,77.30
2019-01-11T16:24:29.158Z,77.50
2019-01-11T16:26:58.773Z,77.60
2019-01-11T16:29:29.102Z,77.60
2019-01-11T16:31:59.504Z,77.60
2019-01-11T16:34:29.326Z,77.70
2019-01-11T16:36:59.040Z,77.70
2019-01-11T16:39:28.782Z,77.70
2019-01-11T16:41:58.397Z,77.90
2019-01-11T16:44:28.038Z,77.80
2019-01-11T16:46:57.727Z,77.80
2019-01-11T16:49:27.511Z,77.90
2019-01-11T16:51:57.833Z,77.90
2019-01-11T16:54:27.418Z,77.80
2019-01-11T16:56:57.201Z,77.70
2019-01-11T16:59:26.833Z,77.70
2019-01-11T17:01:56.616Z,77.90
2019-01-11T17:04:26.204Z,77.80
2019-01-11T17:06:55.809Z,78.00
2019-01-11T17:09:25.486Z,78.00
2019-01-11T17:11:55.107Z,78.70
2019-01-11T17:14:24.722Z,78.00
2019-01-11T17:16:54.359Z,78.00
2019-01-11T17:19:24.017Z,78.30
2019-01-11T17:21:53.790Z,78.20
2019-01-11T17:24:23.378Z,78.30
2019-01-11T17:26:53.066Z,78.40
2019-01-11T17:29:22.691Z,78.70
2019-01-11T17:31:52.266Z,79.00
2019-01-11T17:34:21.890Z,79.10
2019-01-11T17:36:51.512Z,79.00
2019-01-11T17:39:21.160Z,78.90
2019-01-11T17:41:50.971Z,78.90
2019-01-11T17:44:20.751Z,78.80
2019-01-11T17:46:50.477Z,78.70
2019-01-11T17:49:20.088Z,78.90
2019-01-11T17:51:49.856Z,78.90
2019-01-11T17:54:19.489Z,79.00
2019-01-11T17:56:49.053Z,79.00
2019-01-11T17:59:18.829Z,79.10
2019-01-11T18:01:48.901Z,79.10
2019-01-11T18:04:18.563Z,79.30
2019-01-11T18:06:48.238Z,79.40
2019-01-11T18:09:17.869Z,79.50
2019-01-11T18:11:48.286Z,79.80
2019-01-11T18:14:17.910Z,80.00
2019-01-11T18:16:47.527Z,80.20
2019-01-11T18:19:17.132Z,80.30
2019-01-11T18:21:46.738Z,80.30
2019-01-11T18:24:16.384Z,80.40
2019-01-11T18:26:46.042Z,80.40
2019-01-11T18:29:15.909Z,80.40
2019-01-11T18:31:45.719Z,80.50
2019-01-11T18:34:15.329Z,80.40
2019-01-11T18:36:45.946Z,80.20
2019-01-11T18:39:15.704Z,80.40
2019-01-11T18:41:45.483Z,80.40
2019-01-11T18:44:15.103Z,80.40
2019-01-11T18:46:44.845Z,80.50
2019-01-11T18:49:14.466Z,80.60
2019-01-11T18:51:44.122Z,80.60
2019-01-11T18:54:14.920Z,80.60
2019-01-11T18:56:44.607Z,80.70
2019-01-11T18:59:14.263Z,80.70
2019-01-11T19:01:44.586Z,80.70
2019-01-11T19:04:14.542Z,80.70
2019-01-11T19:06:44.159Z,80.80
2019-01-11T19:09:13.769Z,80.70
2019-01-11T19:11:43.385Z,80.80
2019-01-11T19:14:12.975Z,80.80
2019-01-11T19:16:42.824Z,80.80
2019-01-11T19:19:12.534Z,80.80
2019-01-11T19:21:42.349Z,80.80
2019-01-11T19:24:11.979Z,80.90
2019-01-11T19:26:41.678Z,81.00
2019-01-11T19:29:11.467Z,81.00
2019-01-11T19:31:41.154Z,81.00
2019-01-11T19:34:10.787Z,81.00
2019-01-11T19:36:40.525Z,81.00
2019-01-11T19:39:10.288Z,81.10
2019-01-11T19:41:40.074Z,81.10
2019-01-11T19:44:09.847Z,81.00
2019-01-11T19:46:39.456Z,81.00
2019-01-11T19:49:09.100Z,80.90
2019-01-11T19:51:38.792Z,80.90
2019-01-11T19:54:08.432Z,81.00
2019-01-11T19:56:38.052Z,81.00
2019-01-11T19:59:07.636Z,81.10
2019-01-11T20:01:37.397Z,81.00
2019-01-11T20:04:07.028Z,81.00
2019-01-11T20:06:36.641Z,81.10
2019-01-11T20:09:07.950Z,81.10
2019-01-11T20:11:37.537Z,81.80
2019-01-11T20:14:07.143Z,81.00
2019-01-11T20:16:36.795Z,80.90
2019-01-11T20:19:07.454Z,80.80
2019-01-11T20:21:37.065Z,80.70
2019-01-11T20:24:06.648Z,80.70
2019-01-11T20:26:36.313Z,80.70
2019-01-11T20:29:05.934Z,80.70
2019-01-11T20:31:35.691Z,80.80
2019-01-11T20:34:05.289Z,80.80
2019-01-11T20:36:37.732Z,80.80
2019-01-11T20:39:07.417Z,80.80
2019-01-11T20:41:37.002Z,80.80
2019-01-11T20:44:06.617Z,80.90
2019-01-11T20:46:36.228Z,81.00
2019-01-11T20:49:05.805Z,80.90
2019-01-11T20:51:35.588Z,80.90
2019-01-11T20:54:05.299Z,81.00
2019-01-11T20:56:36.513Z,81.00
2019-01-11T20:59:06.104Z,81.00
2019-01-11T21:01:35.795Z,80.90
2019-01-11T21:04:05.505Z,81.00
2019-01-11T21:06:35.181Z,81.00
2019-01-11T21:09:06.977Z,81.00
2019-01-11T21:11:36.589Z,81.10
2019-01-11T21:14:06.402Z,81.30
2019-01-11T21:16:35.983Z,81.30
2019-01-11T21:19:06.424Z,81.40
2019-01-11T21:21:36.321Z,81.50
2019-01-11T21:24:05.902Z,81.50
2019-01-11T21:26:35.525Z,81.60
2019-01-11T21:29:06.189Z,81.80
2019-01-11T21:31:35.793Z,81.70
2019-01-11T21:34:05.405Z,81.70
2019-01-11T21:36:35.738Z,81.70
2019-01-11T21:39:06.386Z,81.70
2019-01-11T21:41:35.994Z,81.80
2019-01-11T21:44:05.569Z,81.80
2019-01-11T21:46:35.350Z,81.60
2019-01-11T21:49:05.658Z,81.70
2019-01-11T21:51:35.351Z,81.80
2019-01-11T21:54:05.029Z,81.80
2019-01-11T21:56:34.691Z,81.70
2019-01-11T21:59:04.260Z,81.80
2019-01-11T22:01:33.954Z,81.90
2019-01-11T22:04:03.608Z,81.90
2019-01-11T22:06:33.284Z,82.00
2019-01-11T22:09:04.313Z,81.90
2019-01-11T22:11:33.934Z,81.90
2019-01-11T22:14:03.553Z,82.00
2019-01-11T22:16:33.171Z,82.00
2019-01-11T22:19:02.753Z,82.00
2019-01-11T22:21:32.334Z,81.90
2019-01-11T22:24:03.317Z,82.00
2019-01-11T22:26:33.081Z,81.90
2019-01-11T22:29:02.774Z,81.90
2019-01-11T22:31:32.368Z,82.10
2019-01-11T22:34:01.950Z,81.80
2019-01-11T22:36:32.271Z,81.80
2019-01-11T22:39:01.902Z,81.80
2019-01-11T22:41:31.668Z,81.90
2019-01-11T22:44:01.442Z,81.90
2019-01-11T22:46:31.104Z,81.90
2019-01-11T22:49:00.734Z,81.90
2019-01-11T22:51:30.353Z,81.90
2019-01-11T22:53:59.993Z,81.90
2019-01-11T22:56:29.618Z,82.00
2019-01-11T22:58:59.238Z,82.00
2019-01-11T23:01:35.009Z,81.90
2019-01-11T23:04:04.692Z,81.90
2019-01-11T23:06:37.677Z,82.00
2019-01-11T23:09:10.455Z,82.00
2019-01-11T23:12:08.854Z,82.10
2019-01-11T23:14:38.510Z,82.20
2019-01-11T23:17:11.386Z,82.20
2019-01-11T23:19:41.001Z,82.30
2019-01-11T23:22:10.627Z,82.50
2019-01-11T23:24:40.281Z,82.50
2019-01-11T23:27:11.577Z,82.50
2019-01-11T23:29:41.204Z,82.60
2019-01-11T23:32:10.910Z,82.70
2019-01-11T23:34:40.540Z,82.70
2019-01-11T23:37:10.282Z,82.70
2019-01-11T23:39:40.000Z,82.80
2019-01-11T23:42:09.619Z,82.70
2019-01-11T23:44:39.322Z,82.70
2019-01-11T23:47:08.936Z,82.70
2019-01-11T23:49:38.550Z,82.70
2019-01-11T23:52:08.124Z,82.70
2019-01-11T23:54:37.792Z,82.70
2019-01-11T23:57:07.456Z,82.70
2019-01-11T23:59:37.199Z,82.60
